createdAt,value
2023-02-11T00:01:14.606Z,98095.69
2023-02-11T00:03:42.544Z,98089.00
2023-02-11T00:06:12.324Z,98091.50
2023-02-11T00:08:40.712Z,98091.19
2023-02-11T00:11:08.751Z,98084.88
2023-02-11T00:13:36.683Z,98077.94
2023-02-11T00:16:08.980Z,98077.94
2023-02-11T00:18:37.358Z,98066.38
2023-02-11T00:21:09.524Z,98063.09
2023-02-11T00:23:39.662Z,98060.88
2023-02-11T00:26:14.202Z,98065.69
2023-02-11T00:28:42.161Z,98061.06
2023-02-11T00:31:10.266Z,98056.06
2023-02-11T00:33:38.288Z,98048.66
2023-02-11T00:36:06.744Z,98064.38
2023-02-11T00:38:34.808Z,98054.59
2023-02-11T00:41:04.532Z,98060.78
2023-02-11T00:43:32.446Z,98048.44
2023-02-11T00:46:00.558Z,98050.94
2023-02-11T00:48:28.828Z,98048.94
2023-02-11T00:50:56.800Z,98044.75
2023-02-11T00:53:24.749Z,98044.56
2023-02-11T00:55:52.794Z,98047.00
2023-02-11T00:58:22.542Z,98046.72
2023-02-11T01:00:50.797Z,98047.22
2023-02-11T01:03:18.722Z,98048.75
2023-02-11T01:05:46.646Z,98049.63
2023-02-11T01:08:14.659Z,98047.16
2023-02-11T01:10:43.976Z,98040.75
2023-02-11T01:13:12.111Z,98045.09
2023-02-11T01:15:41.427Z,98044.56
2023-02-11T01:18:09.337Z,98040.31
2023-02-11T01:20:37.387Z,98048.00
2023-02-11T01:23:05.317Z,98048.28
2023-02-11T01:25:33.232Z,98034.44
2023-02-11T01:28:01.155Z,98041.75
2023-02-11T01:30:29.252Z,98032.41
2023-02-11T01:32:58.564Z,98029.84
2023-02-11T01:35:26.469Z,98032.47
2023-02-11T01:37:54.376Z,98020.47
2023-02-11T01:40:22.272Z,98022.94
2023-02-11T01:42:51.144Z,98020.00
2023-02-11T01:45:58.441Z,98019.53
2023-02-11T01:48:30.360Z,98011.84
2023-02-11T01:51:02.603Z,98017.03
2023-02-11T01:53:48.792Z,98004.28
2023-02-11T01:56:35.007Z,98017.09
2023-02-11T01:59:07.478Z,97999.34
2023-02-11T02:01:36.032Z,97999.94
2023-02-11T02:04:06.296Z,98008.81
2023-02-11T02:06:36.380Z,98007.06
2023-02-11T02:09:07.448Z,98010.47
2023-02-11T02:11:35.377Z,98003.38
2023-02-11T02:14:03.432Z,97997.22
2023-02-11T02:16:33.852Z,98002.28
2023-02-11T02:19:35.896Z,97985.63
2023-02-11T02:22:33.542Z,97980.50
2023-02-11T02:25:11.655Z,97968.75
2023-02-11T02:27:47.010Z,97976.84
2023-02-11T02:30:35.433Z,97986.88
2023-02-11T02:33:24.016Z,97978.78
2023-02-11T02:35:58.691Z,97989.22
2023-02-11T02:38:29.752Z,97989.81
2023-02-11T02:41:00.888Z,97970.75
2023-02-11T02:43:30.176Z,97977.16
2023-02-11T02:46:11.403Z,97971.16
2023-02-11T02:48:40.718Z,97956.16
2023-02-11T02:51:18.983Z,97950.44
2023-02-11T02:53:58.760Z,97950.22
2023-02-11T02:56:33.403Z,97957.16
2023-02-11T02:59:27.717Z,97956.94
2023-02-11T03:02:00.033Z,97948.69
2023-02-11T03:04:35.723Z,97942.72
2023-02-11T03:07:07.235Z,97943.53
2023-02-11T03:09:37.510Z,97943.03
2023-02-11T03:12:06.341Z,97945.41
2023-02-11T03:14:35.168Z,97936.25
2023-02-11T03:17:05.751Z,97936.38
2023-02-11T03:19:37.777Z,97935.78
2023-02-11T03:22:08.936Z,97925.19
2023-02-11T03:24:39.235Z,97926.97
2023-02-11T03:27:12.412Z,97930.78
2023-02-11T03:29:44.044Z,97933.41
2023-02-11T03:32:16.584Z,97932.56
2023-02-11T03:34:49.167Z,97928.44
2023-02-11T03:37:19.731Z,97918.94
2023-02-11T03:39:50.120Z,97918.50
2023-02-11T03:42:18.196Z,97927.81
2023-02-11T03:44:50.570Z,97918.44
2023-02-11T03:47:21.355Z,97888.28
2023-02-11T03:49:51.350Z,97898.34
2023-02-11T03:52:20.301Z,97902.84
2023-02-11T03:54:50.007Z,97904.53
2023-02-11T03:57:17.907Z,97899.06
2023-02-11T03:59:53.847Z,97913.06
2023-02-11T04:02:22.696Z,97910.63
2023-02-11T04:04:51.987Z,97915.75
2023-02-11T04:07:19.867Z,97908.34
2023-02-11T04:09:47.813Z,97909.72
2023-02-11T04:12:15.726Z,97915.34
2023-02-11T04:14:43.713Z,97907.97
2023-02-11T04:17:12.004Z,97913.78
2023-02-11T04:19:40.157Z,97897.06
2023-02-11T04:22:09.531Z,97895.19
2023-02-11T04:24:37.647Z,97897.09
2023-02-11T04:27:05.685Z,97889.59
2023-02-11T04:29:33.577Z,97886.44
2023-02-11T04:32:01.572Z,97889.38
2023-02-11T04:34:29.555Z,97892.78
2023-02-11T04:36:57.524Z,97876.22
2023-02-11T04:39:26.854Z,97880.31
2023-02-11T04:41:54.762Z,97867.69
2023-02-11T04:44:22.686Z,97869.28
2023-02-11T04:46:50.606Z,97857.53
2023-02-11T04:49:19.016Z,97861.84
2023-02-11T04:51:49.316Z,97857.41
2023-02-11T04:54:17.823Z,97874.13
2023-02-11T04:56:47.266Z,97876.69
2023-02-11T04:59:15.281Z,97887.34
2023-02-11T05:01:43.532Z,97877.91
2023-02-11T05:04:11.518Z,97882.53
2023-02-11T05:06:40.278Z,97884.44
2023-02-11T05:09:08.268Z,97884.63
2023-02-11T05:11:36.712Z,97889.81
2023-02-11T05:14:06.085Z,97899.84
2023-02-11T05:16:34.246Z,97891.50
2023-02-11T05:19:02.249Z,97884.75
2023-02-11T05:21:30.253Z,97882.31
2023-02-11T05:23:58.171Z,97895.72
2023-02-11T05:26:26.477Z,97899.91
2023-02-11T05:28:54.413Z,97890.69
2023-02-11T05:31:23.760Z,97888.19
2023-02-11T05:33:51.679Z,97885.69
2023-02-11T05:36:19.640Z,97877.31
2023-02-11T05:38:47.589Z,97885.66
2023-02-11T05:41:15.508Z,97874.78
2023-02-11T05:43:43.454Z,97868.91
2023-02-11T05:46:11.404Z,97858.84
2023-02-11T05:48:40.698Z,97863.03
2023-02-11T05:51:08.620Z,97854.69
2023-02-11T05:53:36.551Z,97856.38
2023-02-11T05:56:04.674Z,97845.47
2023-02-11T05:58:33.840Z,97859.72
2023-02-11T06:01:01.742Z,97853.84
2023-02-11T06:03:29.748Z,97850.50
2023-02-11T06:05:59.075Z,97848.84
2023-02-11T06:08:26.996Z,97858.88
2023-02-11T06:10:54.902Z,97852.16
2023-02-11T06:13:22.833Z,97848.00
2023-02-11T06:15:57.379Z,97838.75
2023-02-11T06:18:25.419Z,97831.19
2023-02-11T06:20:53.360Z,97833.72
2023-02-11T06:23:22.728Z,97827.88
2023-02-11T06:25:51.169Z,97843.78
2023-02-11T06:28:19.590Z,97834.53
2023-02-11T06:30:47.525Z,97842.13
2023-02-11T06:33:15.514Z,97834.53
2023-02-11T06:35:43.440Z,97835.34
2023-02-11T06:38:11.346Z,97832.00
2023-02-11T06:40:41.244Z,97838.66
2023-02-11T06:43:09.176Z,97824.38
2023-02-11T06:45:37.079Z,97833.59
2023-02-11T06:48:05.093Z,97844.47
2023-02-11T06:50:33.034Z,97839.34
2023-02-11T06:53:01.221Z,97846.84
2023-02-11T06:55:29.131Z,97857.72
2023-02-11T06:57:58.408Z,97855.25
2023-02-11T07:00:26.633Z,97862.81
2023-02-11T07:02:54.578Z,97862.78
2023-02-11T07:05:22.726Z,97847.66
2023-02-11T07:07:50.692Z,97854.34
2023-02-11T07:10:18.670Z,97849.31
2023-02-11T07:12:46.563Z,97845.91
2023-02-11T07:15:15.841Z,97846.66
2023-02-11T07:17:43.734Z,97844.16
2023-02-11T07:20:14.691Z,97845.97
2023-02-11T07:22:42.650Z,97839.31
2023-02-11T07:25:10.598Z,97831.63
2023-02-11T07:27:38.529Z,97826.53
2023-02-11T07:30:07.554Z,97816.50
2023-02-11T07:32:36.926Z,97831.53
2023-02-11T07:35:05.684Z,97826.47
2023-02-11T07:37:34.816Z,97813.88
2023-02-11T07:40:02.824Z,97825.56
2023-02-11T07:42:30.781Z,97832.28
2023-02-11T07:44:58.659Z,97836.38
2023-02-11T07:47:26.936Z,97831.31
2023-02-11T07:49:56.770Z,97827.25
2023-02-11T07:52:24.746Z,97837.22
2023-02-11T07:54:52.637Z,97843.00
2023-02-11T07:57:20.533Z,97836.22
2023-02-11T07:59:48.474Z,97827.81
2023-02-11T08:02:16.506Z,97809.41
2023-02-11T08:04:44.443Z,97812.56
2023-02-11T08:07:15.575Z,97809.13
2023-02-11T08:09:43.538Z,97804.22
2023-02-11T08:12:11.489Z,97783.94
2023-02-11T08:14:39.674Z,97793.06
2023-02-11T08:17:07.584Z,97801.34
2023-02-11T08:19:35.493Z,97794.53
2023-02-11T08:22:03.626Z,97799.09
2023-02-11T08:24:32.959Z,97795.47
2023-02-11T08:27:00.855Z,97800.91
2023-02-11T08:29:28.744Z,97791.78
2023-02-11T08:31:56.704Z,97796.38
2023-02-11T08:34:24.637Z,97794.00
2023-02-11T08:36:52.506Z,97789.13
2023-02-11T08:39:22.571Z,97796.66
2023-02-11T08:41:53.241Z,97809.44
2023-02-11T08:44:22.521Z,97808.09
2023-02-11T08:46:51.332Z,97808.31
2023-02-11T08:49:19.334Z,97834.34
2023-02-11T08:51:47.569Z,97834.38
2023-02-11T08:54:15.754Z,97828.22
2023-02-11T08:56:43.886Z,97821.34
2023-02-11T08:59:14.946Z,97814.28
2023-02-11T09:01:44.268Z,97820.34
2023-02-11T09:04:12.513Z,97823.50
2023-02-11T09:06:40.711Z,97825.88
2023-02-11T09:09:12.179Z,97823.34
2023-02-11T09:11:41.422Z,97836.94
2023-02-11T09:14:09.814Z,97827.94
2023-02-11T09:16:39.088Z,97826.91
2023-02-11T09:19:07.114Z,97832.22
2023-02-11T09:21:35.006Z,97841.16
2023-02-11T09:24:02.914Z,97838.19
2023-02-11T09:26:33.375Z,97840.78
2023-02-11T09:29:01.929Z,97839.53
2023-02-11T09:31:31.757Z,97844.75
2023-02-11T09:34:02.711Z,97837.03
2023-02-11T09:36:33.047Z,97846.84
2023-02-11T09:39:02.309Z,97846.66
2023-02-11T09:41:44.511Z,97851.69
2023-02-11T09:44:19.931Z,97858.47
2023-02-11T09:46:51.743Z,97878.66
2023-02-11T09:49:24.548Z,97854.50
2023-02-11T09:51:55.292Z,97856.03
2023-02-11T09:54:28.685Z,97852.59
2023-02-11T09:56:56.581Z,97852.44
2023-02-11T09:59:24.555Z,97846.72
2023-02-11T10:01:56.429Z,97836.25
2023-02-11T10:04:38.008Z,97823.44
2023-02-11T10:07:13.222Z,97839.22
2023-02-11T10:09:54.351Z,97830.69
2023-02-11T10:12:43.172Z,97837.88
2023-02-11T10:15:19.815Z,97839.72
2023-02-11T10:18:02.462Z,97827.28
2023-02-11T10:20:34.941Z,97819.88
2023-02-11T10:23:06.769Z,97819.53
2023-02-11T10:25:36.445Z,97810.25
2023-02-11T10:28:17.453Z,97813.44
2023-02-11T10:30:52.638Z,97810.81
2023-02-11T10:33:24.752Z,97808.88
2023-02-11T10:35:54.133Z,97809.91
2023-02-11T10:38:22.057Z,97804.44
2023-02-11T10:40:50.281Z,97815.41
2023-02-11T10:43:20.536Z,97823.69
2023-02-11T10:45:50.663Z,97819.09
2023-02-11T10:48:39.242Z,97810.81
2023-02-11T10:51:18.434Z,97808.41
2023-02-11T10:53:47.190Z,97796.50
2023-02-11T10:56:22.990Z,97796.69
2023-02-11T10:58:57.763Z,97804.16
2023-02-11T11:01:39.434Z,97792.38
2023-02-11T11:04:07.458Z,97797.47
2023-02-11T11:06:36.763Z,97799.16
2023-02-11T11:09:04.810Z,97798.34
2023-02-11T11:11:32.694Z,97801.97
2023-02-11T11:14:01.682Z,97802.50
2023-02-11T11:16:30.386Z,97809.28
2023-02-11T11:19:17.378Z,97799.38
2023-02-11T11:21:47.889Z,97787.19
2023-02-11T11:24:19.274Z,97795.84
2023-02-11T11:26:49.135Z,97790.03
2023-02-11T11:29:19.285Z,97780.06
2023-02-11T11:31:50.044Z,97769.88
2023-02-11T11:34:24.404Z,97782.53
2023-02-11T11:36:53.724Z,97770.81
2023-02-11T11:39:24.591Z,97766.03
2023-02-11T11:41:57.426Z,97753.16
2023-02-11T11:44:31.282Z,97755.81
2023-02-11T11:47:21.915Z,97735.19
2023-02-11T11:49:56.436Z,97746.47
2023-02-11T11:52:36.488Z,97734.94
2023-02-11T11:55:08.117Z,97729.28
2023-02-11T11:57:39.441Z,97728.38
2023-02-11T12:00:16.442Z,97734.50
2023-02-11T12:03:01.202Z,97731.81
2023-02-11T12:05:35.917Z,97726.59
2023-02-11T12:08:15.435Z,97720.50
2023-02-11T12:10:51.604Z,97707.66
2023-02-11T12:13:31.432Z,97714.22
2023-02-11T12:16:07.159Z,97699.81
2023-02-11T12:18:47.923Z,97693.69
2023-02-11T12:21:26.265Z,97697.22
2023-02-11T12:24:07.821Z,97666.88
2023-02-11T12:26:41.272Z,97675.38
2023-02-11T12:29:16.714Z,97667.94
2023-02-11T12:31:56.309Z,97656.97
2023-02-11T12:34:58.569Z,97666.78
2023-02-11T12:37:37.415Z,97662.00
2023-02-11T12:40:16.090Z,97662.91
2023-02-11T12:43:10.890Z,97642.84
2023-02-11T12:45:59.166Z,97670.06
2023-02-11T12:48:41.736Z,97661.06
2023-02-11T12:51:15.920Z,97668.03
2023-02-11T12:53:54.767Z,97669.72
2023-02-11T12:56:27.171Z,97658.59
2023-02-11T12:58:57.779Z,97671.88
2023-02-11T13:01:28.766Z,97668.25
2023-02-11T13:04:00.278Z,97673.81
2023-02-11T13:06:30.800Z,97683.38
2023-02-11T13:09:03.318Z,97693.50
2023-02-11T13:11:38.509Z,97693.28
2023-02-11T13:14:12.132Z,97690.81
2023-02-11T13:16:42.670Z,97694.91
2023-02-11T13:19:19.207Z,97701.00
2023-02-11T13:22:01.354Z,97691.16
2023-02-11T13:24:37.740Z,97683.53
2023-02-11T13:27:16.492Z,97683.38
2023-02-11T13:30:12.825Z,97684.25
2023-02-11T13:33:06.595Z,97677.03
2023-02-11T13:35:36.545Z,97666.28
2023-02-11T13:38:06.180Z,97684.63
2023-02-11T13:40:35.886Z,97678.69
2023-02-11T13:43:06.768Z,97682.84
2023-02-11T13:45:39.661Z,97685.16
2023-02-11T13:48:14.879Z,97689.13
2023-02-11T13:50:48.909Z,97674.78
2023-02-11T13:53:18.516Z,97662.53
2023-02-11T13:55:48.206Z,97664.28
2023-02-11T13:58:37.176Z,97667.59
2023-02-11T14:01:05.629Z,97675.25
2023-02-11T14:03:56.355Z,97690.50
2023-02-11T14:06:44.089Z,97679.56
2023-02-11T14:09:35.134Z,97684.75
2023-02-11T14:12:26.213Z,97693.09
2023-02-11T14:15:24.194Z,97694.78
2023-02-11T14:17:52.483Z,97691.53
2023-02-11T14:20:36.552Z,97686.72
2023-02-11T14:23:05.739Z,97691.94
2023-02-11T14:25:33.760Z,97685.19
2023-02-11T14:28:08.579Z,97680.09
2023-02-11T14:30:47.920Z,97677.63
2023-02-11T14:33:25.155Z,97675.66
2023-02-11T14:36:02.650Z,97671.50
2023-02-11T14:38:42.135Z,97670.69
2023-02-11T14:41:15.012Z,97675.88
2023-02-11T14:43:47.183Z,97672.72
2023-02-11T14:46:17.928Z,97674.25
2023-02-11T14:48:48.208Z,97669.97
2023-02-11T14:51:20.529Z,97673.31
2023-02-11T14:53:51.030Z,97666.53
2023-02-11T14:56:20.894Z,97655.88
2023-02-11T14:58:51.796Z,97665.16
2023-02-11T15:01:29.044Z,97669.38
2023-02-11T15:03:58.411Z,97676.50
2023-02-11T15:06:28.265Z,97687.44
2023-02-11T15:09:00.933Z,97685.78
2023-02-11T15:11:31.157Z,97674.19
2023-02-11T15:14:01.146Z,97656.56
2023-02-11T15:16:30.503Z,97673.44
2023-02-11T15:19:04.336Z,97672.59
2023-02-11T15:21:33.918Z,97685.16
2023-02-11T15:24:05.988Z,97665.13
2023-02-11T15:26:34.399Z,97662.63
2023-02-11T15:29:02.290Z,97653.53
2023-02-11T15:31:34.890Z,97662.84
2023-02-11T15:34:08.438Z,97664.50
2023-02-11T15:36:36.425Z,97684.78
2023-02-11T15:39:32.412Z,97672.09
2023-02-11T15:42:22.198Z,97677.22
2023-02-11T15:44:56.557Z,97680.66
2023-02-11T15:47:26.284Z,97663.88
2023-02-11T15:49:54.204Z,97647.03
2023-02-11T15:52:28.750Z,97647.06
2023-02-11T15:54:59.419Z,97649.66
2023-02-11T15:57:27.428Z,97656.44
2023-02-11T15:59:56.332Z,97671.53
2023-02-11T16:02:28.817Z,97669.84
2023-02-11T16:04:58.366Z,97674.94
2023-02-11T16:07:44.808Z,97668.31
2023-02-11T16:10:25.802Z,97667.41
2023-02-11T16:12:55.895Z,97663.38
2023-02-11T16:15:32.608Z,97672.56
2023-02-11T16:18:02.539Z,97677.59
2023-02-11T16:20:30.432Z,97676.84
2023-02-11T16:22:58.486Z,97666.75
2023-02-11T16:25:26.424Z,97672.47
2023-02-11T16:27:54.964Z,97666.66
2023-02-11T16:30:27.634Z,97665.88
2023-02-11T16:32:55.727Z,97670.06
2023-02-11T16:35:24.998Z,97666.84
2023-02-11T16:37:52.897Z,97666.13
2023-02-11T16:40:20.959Z,97659.34
2023-02-11T16:42:49.308Z,97659.38
2023-02-11T16:45:17.355Z,97654.41
2023-02-11T16:47:46.179Z,97653.53
2023-02-11T16:50:21.368Z,97658.50
2023-02-11T16:52:52.330Z,97663.50
2023-02-11T16:55:21.986Z,97660.16
2023-02-11T16:57:50.344Z,97654.25
2023-02-11T17:00:19.288Z,97660.19
2023-02-11T17:02:47.233Z,97676.31
2023-02-11T17:05:18.643Z,97674.63
2023-02-11T17:07:46.611Z,97697.34
2023-02-11T17:10:17.350Z,97694.84
2023-02-11T17:12:45.417Z,97694.09
2023-02-11T17:15:13.530Z,97698.34
2023-02-11T17:17:41.404Z,97708.41
2023-02-11T17:20:12.274Z,97710.91
2023-02-11T17:22:40.271Z,97710.91
2023-02-11T17:25:08.302Z,97714.38
2023-02-11T17:27:37.630Z,97719.34
2023-02-11T17:30:06.416Z,97728.63
2023-02-11T17:32:34.533Z,97714.38
2023-02-11T17:35:02.423Z,97717.81
2023-02-11T17:37:30.451Z,97731.25
2023-02-11T17:39:58.373Z,97732.97
2023-02-11T17:42:26.819Z,97726.25
2023-02-11T17:44:56.114Z,97736.31
2023-02-11T17:47:24.017Z,97737.16
2023-02-11T17:49:51.929Z,97744.69
2023-02-11T17:52:20.870Z,97737.97
2023-02-11T17:54:48.882Z,97746.44
2023-02-11T17:57:16.826Z,97744.78
2023-02-11T17:59:44.747Z,97730.59
2023-02-11T18:02:14.419Z,97736.41
2023-02-11T18:04:42.574Z,97739.81
2023-02-11T18:07:10.569Z,97746.56
2023-02-11T18:09:39.520Z,97747.38
2023-02-11T18:12:08.861Z,97752.47
2023-02-11T18:14:36.848Z,97755.06
2023-02-11T18:17:04.769Z,97752.50
2023-02-11T18:19:35.967Z,97755.84
2023-02-11T18:22:04.431Z,97748.22
2023-02-11T18:24:32.925Z,97748.28
2023-02-11T18:27:00.800Z,97754.19
2023-02-11T18:29:28.730Z,97754.25
2023-02-11T18:31:57.838Z,97760.06
2023-02-11T18:34:26.398Z,97758.34
2023-02-11T18:36:55.666Z,97754.19
2023-02-11T18:39:24.344Z,97758.41
2023-02-11T18:41:54.632Z,97755.09
2023-02-11T18:44:24.676Z,97763.50
2023-02-11T18:46:52.756Z,97770.19
2023-02-11T18:49:21.135Z,97777.81
2023-02-11T18:51:49.070Z,97769.38
2023-02-11T18:54:18.344Z,97776.84
2023-02-11T18:56:46.522Z,97776.88
2023-02-11T18:59:14.450Z,97771.91
2023-02-11T19:01:43.377Z,97759.31
2023-02-11T19:04:11.464Z,97761.88
2023-02-11T19:06:39.566Z,97778.69
2023-02-11T19:09:09.883Z,97770.25
2023-02-11T19:11:50.396Z,97773.59
2023-02-11T19:14:21.146Z,97766.84
2023-02-11T19:16:50.645Z,97778.66
2023-02-11T19:19:18.791Z,97784.41
2023-02-11T19:21:47.410Z,97775.91
2023-02-11T19:24:18.879Z,97786.84
2023-02-11T19:26:48.709Z,97789.34
2023-02-11T19:29:17.113Z,97787.69
2023-02-11T19:31:45.584Z,97791.06
2023-02-11T19:34:15.187Z,97786.81
2023-02-11T19:36:43.240Z,97792.72
2023-02-11T19:39:11.394Z,97802.00
2023-02-11T19:41:40.592Z,97788.50
2023-02-11T19:44:10.214Z,97792.69
2023-02-11T19:46:40.871Z,97806.13
2023-02-11T19:49:09.912Z,97806.06
2023-02-11T19:51:39.326Z,97807.81
2023-02-11T19:54:07.924Z,97815.28
2023-02-11T19:56:37.868Z,97806.91
2023-02-11T19:59:08.889Z,97811.09
2023-02-11T20:01:38.366Z,97811.94
2023-02-11T20:04:06.783Z,97814.44
2023-02-11T20:06:35.295Z,97814.44
2023-02-11T20:09:06.125Z,97799.38
2023-02-11T20:11:35.067Z,97803.50
2023-02-11T20:14:03.212Z,97805.13
2023-02-11T20:16:46.984Z,97805.13
2023-02-11T20:19:18.502Z,97802.56
2023-02-11T20:21:47.903Z,97809.31
2023-02-11T20:24:16.137Z,97813.50
2023-02-11T20:26:45.269Z,97819.38
2023-02-11T20:29:13.288Z,97820.16
2023-02-11T20:31:41.332Z,97813.44
2023-02-11T20:34:09.424Z,97813.34
2023-02-11T20:36:40.253Z,97821.78
2023-02-11T20:39:08.588Z,97820.06
2023-02-11T20:41:39.845Z,97809.97
2023-02-11T20:44:09.533Z,97809.97
2023-02-11T20:46:40.051Z,97802.34
2023-02-11T20:49:08.818Z,97815.78
2023-02-11T20:51:38.139Z,97807.31
2023-02-11T20:54:07.183Z,97814.09
2023-02-11T20:56:36.856Z,97815.75
2023-02-11T20:59:05.611Z,97809.94
2023-02-11T21:01:35.707Z,97820.00
2023-02-11T21:04:05.560Z,97828.41
2023-02-11T21:06:35.606Z,97825.06
2023-02-11T21:09:05.512Z,97818.34
2023-02-11T21:11:33.743Z,97825.88
2023-02-11T21:14:02.412Z,97827.63
2023-02-11T21:16:30.579Z,97818.38
2023-02-11T21:18:58.544Z,97823.34
2023-02-11T21:21:26.520Z,97825.03
2023-02-11T21:23:56.078Z,97825.03
2023-02-11T21:26:25.550Z,97822.56
2023-02-11T21:28:55.146Z,97823.38
2023-02-11T21:31:25.091Z,97807.28
2023-02-11T21:33:55.059Z,97814.91
2023-02-11T21:36:23.274Z,97804.81
2023-02-11T21:38:51.336Z,97817.47
2023-02-11T21:41:21.837Z,97823.25
2023-02-11T21:43:51.222Z,97826.63
2023-02-11T21:46:19.948Z,97826.63
2023-02-11T21:48:48.309Z,97823.25
2023-02-11T21:51:18.047Z,97832.47
2023-02-11T21:53:46.022Z,97823.25
2023-02-11T21:56:16.515Z,97830.69
2023-02-11T21:58:44.638Z,97818.97
2023-02-11T22:01:15.665Z,97817.28
2023-02-11T22:03:43.990Z,97820.72
2023-02-11T22:06:13.858Z,97828.31
2023-02-11T22:08:42.274Z,97816.56
2023-02-11T22:11:12.719Z,97819.91
2023-02-11T22:13:41.148Z,97813.97
2023-02-11T22:16:11.033Z,97818.13
2023-02-11T22:18:40.516Z,97815.69
2023-02-11T22:21:10.846Z,97814.88
2023-02-11T22:23:39.659Z,97824.06
2023-02-11T22:26:09.293Z,97824.94
2023-02-11T22:28:38.987Z,97840.06
2023-02-11T22:31:07.091Z,97849.97
2023-02-11T22:33:35.160Z,97850.03
2023-02-11T22:36:06.349Z,97842.53
2023-02-11T22:38:34.698Z,97837.53
2023-02-11T22:41:06.982Z,97840.75
2023-02-11T22:43:34.976Z,97845.03
2023-02-11T22:46:03.148Z,97846.75
2023-02-11T22:48:31.190Z,97845.06
2023-02-11T22:51:06.719Z,97842.63
2023-02-11T22:53:34.615Z,97851.06
2023-02-11T22:56:07.124Z,97850.25
2023-02-11T22:58:35.504Z,97854.47
2023-02-11T23:01:03.503Z,97856.97
2023-02-11T23:03:31.821Z,97846.81
2023-02-11T23:06:00.600Z,97842.63
2023-02-11T23:08:30.838Z,97851.06
2023-02-11T23:11:04.853Z,97846.88
2023-02-11T23:13:34.936Z,97868.72
2023-02-11T23:16:05.853Z,97870.31
2023-02-11T23:18:34.271Z,97870.31
2023-02-11T23:21:06.910Z,97871.13
2023-02-11T23:23:36.542Z,97864.59
2023-02-11T23:26:05.154Z,97871.34
2023-02-11T23:28:33.076Z,97869.69
2023-02-11T23:31:01.054Z,97870.47
2023-02-11T23:33:28.992Z,97867.91
2023-02-11T23:35:57.154Z,97863.63
2023-02-11T23:38:25.073Z,97865.31
2023-02-11T23:40:54.351Z,97852.75
2023-02-11T23:43:24.311Z,97848.50
2023-02-11T23:45:53.106Z,97846.78
2023-02-11T23:48:21.157Z,97851.03
2023-02-11T23:50:49.071Z,97851.03
2023-02-11T23:53:17.044Z,97852.69
2023-02-11T23:55:46.482Z,97853.56
2023-02-11T23:58:16.222Z,97852.69
